createdAt,value
2019-01-24T00:01:06.448Z,-5.30
2019-01-24T00:03:35.824Z,-5.20
2019-01-24T00:06:05.740Z,-5.20
2019-01-24T00:08:35.114Z,-5.30
2019-01-24T00:11:04.959Z,-5.20
2019-01-24T00:13:34.672Z,-5.20
2019-01-24T00:16:04.423Z,-5.20
2019-01-24T00:18:33.885Z,-5.20
2019-01-24T00:21:04.027Z,-5.20
2019-01-24T00:23:33.484Z,-5.20
2019-01-24T00:26:02.647Z,-5.20
2019-01-24T00:28:32.361Z,-5.30
2019-01-24T00:31:02.534Z,-5.20
2019-01-24T00:33:32.286Z,-5.20
2019-01-24T00:36:02.299Z,-5.20
2019-01-24T00:38:31.715Z,-5.10
2019-01-24T00:41:01.184Z,-5.20
2019-01-24T00:43:30.667Z,-5.10
2019-01-24T00:46:00.743Z,-5.20
2019-01-24T00:48:30.183Z,-5.20
2019-01-24T00:50:59.343Z,-5.20
2019-01-24T00:53:29.164Z,-5.20
2019-01-24T00:55:58.215Z,-5.20
2019-01-24T00:58:28.440Z,-5.20
2019-01-24T01:00:57.912Z,-5.20
2019-01-24T01:03:26.994Z,-5.20
2019-01-24T01:05:56.100Z,-5.20
2019-01-24T01:08:44.361Z,-5.20
2019-01-24T01:11:14.201Z,-5.20
2019-01-24T01:13:44.091Z,-5.20
2019-01-24T01:16:13.284Z,-5.30
2019-01-24T01:18:42.796Z,-5.20
2019-01-24T01:21:11.940Z,-5.30
2019-01-24T01:23:41.418Z,-5.30
2019-01-24T01:26:10.844Z,-5.20
2019-01-24T01:28:40.241Z,-5.10
2019-01-24T01:31:10.055Z,-5.10
2019-01-24T01:33:39.525Z,-5.10
2019-01-24T01:36:09.682Z,-5.10
2019-01-24T01:38:39.449Z,-5.10
2019-01-24T01:41:09.188Z,-5.20
2019-01-24T01:43:38.653Z,-5.20
2019-01-24T01:46:07.719Z,-5.20
2019-01-24T01:48:38.190Z,-5.30
2019-01-24T01:51:07.262Z,-5.30
2019-01-24T01:53:37.228Z,-5.30
2019-01-24T01:56:06.978Z,-5.30
2019-01-24T01:58:37.011Z,-5.30
2019-01-24T02:01:06.970Z,-5.30
2019-01-24T02:03:36.535Z,-5.30
2019-01-24T02:06:06.323Z,-5.40
2019-01-24T02:08:35.554Z,-5.40
2019-01-24T02:11:05.267Z,-5.40
2019-01-24T02:13:34.724Z,-5.40
2019-01-24T02:16:03.812Z,-5.40
2019-01-24T02:18:33.625Z,-5.50
2019-01-24T02:21:03.158Z,-5.40
2019-01-24T02:23:32.510Z,-5.40
2019-01-24T02:26:20.805Z,-5.40
2019-01-24T02:28:50.434Z,-5.40
2019-01-24T02:31:19.543Z,-5.40
2019-01-24T02:33:48.997Z,-5.50
2019-01-24T02:36:18.447Z,-5.50
2019-01-24T02:38:48.450Z,-5.50
2019-01-24T02:41:18.380Z,-5.40
2019-01-24T02:43:48.007Z,-5.40
2019-01-24T02:46:17.788Z,-5.40
2019-01-24T02:48:47.575Z,-5.40
2019-01-24T02:51:16.723Z,-5.50
2019-01-24T02:53:46.867Z,-5.40
2019-01-24T02:56:15.948Z,-5.40
2019-01-24T02:58:45.580Z,-5.50
2019-01-24T03:01:15.228Z,-5.50
2019-01-24T03:03:44.643Z,-5.40
2019-01-24T03:06:13.725Z,-5.40
2019-01-24T03:08:43.460Z,-5.40
2019-01-24T03:11:13.666Z,-5.40
2019-01-24T03:13:42.732Z,-5.40
2019-01-24T03:16:12.180Z,-5.40
2019-01-24T03:18:41.701Z,-5.50
2019-01-24T03:21:11.098Z,-5.50
2019-01-24T03:23:40.314Z,-5.50
2019-01-24T03:26:09.745Z,-5.50
2019-01-24T03:28:38.883Z,-5.60
2019-01-24T03:31:08.397Z,-5.50
2019-01-24T03:33:37.528Z,-5.50
2019-01-24T03:36:07.537Z,-5.50
2019-01-24T03:38:37.300Z,-5.50
2019-01-24T03:41:07.494Z,-5.50
2019-01-24T03:43:36.892Z,-5.50
2019-01-24T03:46:06.095Z,-5.50
2019-01-24T03:48:35.524Z,-5.50
2019-01-24T03:51:04.898Z,-5.50
2019-01-24T03:53:34.352Z,-5.60
2019-01-24T03:56:03.487Z,-5.60
2019-01-24T03:58:33.261Z,-5.60
2019-01-24T04:01:02.982Z,-5.60
2019-01-24T04:03:32.201Z,-5.60
2019-01-24T04:06:02.111Z,-5.60
2019-01-24T04:08:31.207Z,-5.70
2019-01-24T04:11:00.334Z,-5.60
2019-01-24T04:13:29.800Z,-5.60
2019-01-24T04:15:59.276Z,-5.60
2019-01-24T04:18:29.402Z,-5.60
2019-01-24T04:21:17.976Z,-5.60
2019-01-24T04:23:47.748Z,-5.60
2019-01-24T04:26:17.216Z,-5.50
2019-01-24T04:28:46.673Z,-5.60
2019-01-24T04:31:16.382Z,-5.50
2019-01-24T04:33:46.515Z,-5.60
2019-01-24T04:36:16.216Z,-5.50
2019-01-24T04:38:46.835Z,-5.50
2019-01-24T04:41:16.260Z,-5.60
2019-01-24T04:43:45.843Z,-5.60
2019-01-24T04:46:15.566Z,-5.50
2019-01-24T04:48:45.634Z,-5.50
2019-01-24T04:51:14.996Z,-5.50
2019-01-24T04:53:44.360Z,-5.50
2019-01-24T04:56:13.812Z,-5.50
2019-01-24T04:58:43.210Z,-5.50
2019-01-24T05:01:12.633Z,-5.50
2019-01-24T05:03:42.107Z,-5.50
2019-01-24T05:06:11.910Z,-5.50
2019-01-24T05:08:42.016Z,-5.60
2019-01-24T05:11:11.122Z,-5.50
2019-01-24T05:13:41.179Z,-5.50
2019-01-24T05:16:10.603Z,-5.50
2019-01-24T05:18:39.998Z,-5.50
2019-01-24T05:21:09.454Z,-5.50
2019-01-24T05:23:39.105Z,-5.50
2019-01-24T05:26:08.576Z,-5.40
2019-01-24T05:28:38.191Z,-5.40
2019-01-24T05:31:08.132Z,-5.40
2019-01-24T05:33:37.820Z,-5.50
2019-01-24T05:36:07.698Z,-5.50
2019-01-24T05:38:37.141Z,-5.40
2019-01-24T05:41:06.498Z,-5.40
2019-01-24T05:43:36.558Z,-5.50
2019-01-24T05:46:05.647Z,-5.50
2019-01-24T05:48:35.689Z,-5.50
2019-01-24T05:51:05.142Z,-5.60
2019-01-24T05:53:34.643Z,-5.60
2019-01-24T05:56:04.066Z,-5.50
2019-01-24T05:58:33.481Z,-5.60
2019-01-24T06:01:04.832Z,-5.60
2019-01-24T06:03:34.630Z,-5.70
2019-01-24T06:06:04.444Z,-5.60
2019-01-24T06:08:53.398Z,-5.60
2019-01-24T06:11:22.817Z,-5.50
2019-01-24T06:13:52.234Z,-5.60
2019-01-24T06:16:21.417Z,-5.50
2019-01-24T06:18:51.123Z,-5.50
2019-01-24T06:21:21.254Z,-5.50
2019-01-24T06:23:50.401Z,-5.50
2019-01-24T06:26:19.767Z,-5.50
2019-01-24T06:28:49.168Z,-5.50
2019-01-24T06:31:18.548Z,-5.50
2019-01-24T06:33:48.397Z,-5.50
2019-01-24T06:36:18.096Z,-5.50
2019-01-24T06:38:47.833Z,-5.60
2019-01-24T06:41:17.538Z,-5.50
2019-01-24T06:43:47.333Z,-5.50
2019-01-24T06:46:16.874Z,-5.60
2019-01-24T06:48:46.016Z,-5.50
2019-01-24T06:51:16.117Z,-5.60
2019-01-24T06:53:45.449Z,-5.70
2019-01-24T06:56:15.700Z,-5.60
2019-01-24T06:58:44.754Z,-5.60
2019-01-24T07:01:14.231Z,-5.60
2019-01-24T07:03:44.031Z,-5.60
2019-01-24T07:06:13.434Z,-5.70
2019-01-24T07:08:43.240Z,-5.70
2019-01-24T07:11:12.658Z,-5.60
2019-01-24T07:13:41.742Z,-5.60
2019-01-24T07:16:12.222Z,-5.60
2019-01-24T07:18:42.004Z,-5.60
2019-01-24T07:21:11.777Z,-5.60
2019-01-24T07:23:41.578Z,-5.60
2019-01-24T07:26:11.055Z,-5.60
2019-01-24T07:28:40.753Z,-5.50
2019-01-24T07:31:10.394Z,-5.50
2019-01-24T07:33:41.303Z,-5.60
2019-01-24T07:36:11.213Z,-5.50
2019-01-24T07:38:40.674Z,-5.60
2019-01-24T07:41:09.786Z,-5.60
2019-01-24T07:43:38.915Z,-5.50
2019-01-24T07:46:08.675Z,-5.50
2019-01-24T07:48:38.160Z,-5.40
2019-01-24T07:51:07.509Z,-5.50
2019-01-24T07:53:37.358Z,-5.40
2019-01-24T07:56:07.460Z,-5.40
2019-01-24T07:58:36.532Z,-5.40
2019-01-24T08:01:05.991Z,-5.30
2019-01-24T08:03:36.028Z,-5.30
2019-01-24T08:06:09.137Z,-5.30
2019-01-24T08:08:37.296Z,-5.30
2019-01-24T08:11:07.198Z,-5.30
2019-01-24T08:13:36.908Z,-5.30
2019-01-24T08:16:07.450Z,-5.30
2019-01-24T08:18:36.534Z,-5.20
2019-01-24T08:21:06.004Z,-5.30
2019-01-24T08:23:35.532Z,-5.50
2019-01-24T08:26:05.075Z,-5.40
2019-01-24T08:28:34.484Z,-5.40
2019-01-24T08:31:04.558Z,-5.50
2019-01-24T08:33:34.626Z,-5.40
2019-01-24T08:36:05.009Z,-5.50
2019-01-24T08:38:34.207Z,-5.50
2019-01-24T08:41:03.890Z,-5.60
2019-01-24T08:43:33.346Z,-5.60
2019-01-24T08:46:02.873Z,-5.60
2019-01-24T08:48:32.580Z,-5.60
2019-01-24T08:51:01.995Z,-5.60
2019-01-24T08:53:32.214Z,-5.50
2019-01-24T08:56:01.741Z,-5.50
2019-01-24T08:58:31.188Z,-5.40
2019-01-24T09:01:00.726Z,-5.40
2019-01-24T09:03:29.794Z,-5.40
2019-01-24T09:05:58.956Z,-5.20
2019-01-24T09:08:28.166Z,-5.30
2019-01-24T09:10:57.652Z,-5.20
2019-01-24T09:13:27.176Z,-5.00
2019-01-24T09:15:56.771Z,-5.20
2019-01-24T09:18:26.225Z,-5.10
2019-01-24T09:20:56.906Z,-5.10
2019-01-24T09:23:26.544Z,-5.00
2019-01-24T09:25:56.652Z,-5.10
2019-01-24T09:28:25.807Z,-5.00
2019-01-24T09:30:56.095Z,-5.10
2019-01-24T09:33:25.768Z,-5.00
2019-01-24T09:35:55.486Z,-5.00
2019-01-24T09:38:24.991Z,-4.90
2019-01-24T09:40:55.135Z,-4.90
2019-01-24T09:43:24.225Z,-4.80
2019-01-24T09:45:53.984Z,-5.00
2019-01-24T09:48:23.418Z,-5.00
2019-01-24T09:50:53.077Z,-4.90
2019-01-24T09:53:22.637Z,-5.00
2019-01-24T09:56:11.036Z,-5.00
2019-01-24T09:58:41.207Z,-4.90
2019-01-24T10:01:10.711Z,-5.00
2019-01-24T10:03:40.570Z,-5.00
2019-01-24T10:06:10.364Z,-5.00
2019-01-24T10:08:40.132Z,-4.90
2019-01-24T10:11:09.227Z,-5.00
2019-01-24T10:13:38.375Z,-4.80
2019-01-24T10:16:07.797Z,-4.70
2019-01-24T10:18:36.878Z,-4.80
2019-01-24T10:21:06.964Z,-4.80
2019-01-24T10:23:36.742Z,-4.90
2019-01-24T10:26:06.188Z,-4.70
2019-01-24T10:28:36.027Z,-4.80
2019-01-24T10:31:05.464Z,-4.90
2019-01-24T10:33:35.185Z,-4.80
2019-01-24T10:36:05.368Z,-4.70
2019-01-24T10:38:34.817Z,-4.60
2019-01-24T10:41:04.222Z,-4.60
2019-01-24T10:43:33.614Z,-4.60
2019-01-24T10:46:03.326Z,-4.60
2019-01-24T10:48:32.737Z,-4.70
2019-01-24T10:51:02.157Z,-4.60
2019-01-24T10:53:31.527Z,-4.60
2019-01-24T10:56:00.950Z,-4.50
2019-01-24T10:58:30.307Z,-4.70
2019-01-24T11:00:59.768Z,-4.60
2019-01-24T11:03:29.726Z,-4.60
2019-01-24T11:05:58.796Z,-4.60
2019-01-24T11:08:28.864Z,-4.60
2019-01-24T11:10:58.664Z,-4.40
2019-01-24T11:13:28.096Z,-4.50
2019-01-24T11:15:57.947Z,-4.50
2019-01-24T11:18:27.775Z,-4.40
2019-01-24T11:20:57.517Z,-4.40
2019-01-24T11:23:26.896Z,-4.40
2019-01-24T11:25:56.307Z,-4.40
2019-01-24T11:28:25.664Z,-4.50
2019-01-24T11:30:55.401Z,-4.60
2019-01-24T11:33:24.539Z,-4.50
2019-01-24T11:35:53.971Z,-4.40
2019-01-24T11:38:23.413Z,-4.40
2019-01-24T11:40:53.252Z,-4.30
2019-01-24T11:43:23.099Z,-4.30
2019-01-24T11:45:52.452Z,-4.20
2019-01-24T11:48:21.561Z,-4.20
2019-01-24T11:50:51.185Z,-4.30
2019-01-24T11:53:21.246Z,-4.30
2019-01-24T11:55:50.417Z,-4.50
2019-01-24T11:58:19.769Z,-4.60
2019-01-24T12:00:54.934Z,-4.60
2019-01-24T12:03:24.437Z,-4.50
2019-01-24T12:05:54.017Z,-4.40
2019-01-24T12:08:23.418Z,-4.40
2019-01-24T12:10:52.774Z,-4.40
2019-01-24T12:13:22.276Z,-4.50
2019-01-24T12:15:51.647Z,-4.50
2019-01-24T12:18:21.090Z,-4.40
2019-01-24T12:20:50.239Z,-4.40
2019-01-24T12:23:19.588Z,-4.50
2019-01-24T12:25:50.059Z,-4.50
2019-01-24T12:28:19.547Z,-4.40
2019-01-24T12:30:49.310Z,-4.40
2019-01-24T12:33:19.396Z,-4.40
2019-01-24T12:35:49.232Z,-4.40
2019-01-24T12:38:18.449Z,-4.30
2019-01-24T12:40:47.846Z,-4.30
2019-01-24T12:43:17.431Z,-4.30
2019-01-24T12:45:47.342Z,-4.40
2019-01-24T12:48:16.718Z,-4.30
2019-01-24T12:50:46.450Z,-4.30
2019-01-24T12:53:15.931Z,-4.30
2019-01-24T12:55:45.366Z,-4.30
2019-01-24T12:58:15.125Z,-4.30
2019-01-24T13:00:44.778Z,-4.40
2019-01-24T13:03:16.188Z,-4.40
2019-01-24T13:05:45.669Z,-4.40
2019-01-24T13:08:14.850Z,-4.40
2019-01-24T13:10:44.678Z,-4.40
2019-01-24T13:13:14.051Z,-4.40
2019-01-24T13:15:43.468Z,-4.50
2019-01-24T13:18:13.320Z,-4.50
2019-01-24T13:20:43.108Z,-4.60
2019-01-24T13:23:12.587Z,-4.50
2019-01-24T13:25:41.948Z,-4.50
2019-01-24T13:28:11.562Z,-4.50
2019-01-24T13:30:41.013Z,-4.40
2019-01-24T13:33:11.249Z,-4.40
2019-01-24T13:35:40.671Z,-4.40
2019-01-24T13:38:10.409Z,-4.50
2019-01-24T13:40:40.199Z,-4.50
2019-01-24T13:43:10.308Z,-4.60
2019-01-24T13:45:40.557Z,-4.50
2019-01-24T13:48:10.108Z,-4.50
2019-01-24T13:50:39.342Z,-4.50
2019-01-24T13:53:08.467Z,-4.50
2019-01-24T13:55:39.462Z,-4.40
2019-01-24T13:58:09.548Z,-4.40
2019-01-24T14:00:40.980Z,-4.40
2019-01-24T14:03:19.897Z,-4.50
2019-01-24T14:05:50.514Z,-4.50
2019-01-24T14:08:20.569Z,-4.50
2019-01-24T14:10:50.159Z,-4.40
2019-01-24T14:13:19.338Z,-4.50
2019-01-24T14:15:48.803Z,-4.40
2019-01-24T14:18:19.325Z,-4.50
2019-01-24T14:20:49.055Z,-4.50
2019-01-24T14:23:18.628Z,-4.50
2019-01-24T14:25:48.075Z,-4.50
2019-01-24T14:28:19.524Z,-4.50
2019-01-24T14:30:49.599Z,-4.50
2019-01-24T14:33:19.433Z,-4.60
2019-01-24T14:35:49.098Z,-4.50
2019-01-24T14:38:18.573Z,-4.50
2019-01-24T14:40:48.133Z,-4.60
2019-01-24T14:43:17.804Z,-4.60
2019-01-24T14:45:47.513Z,-4.60
2019-01-24T14:48:17.102Z,-4.60
2019-01-24T14:50:46.725Z,-4.50
2019-01-24T14:53:16.011Z,-4.50
2019-01-24T14:55:45.155Z,-4.60
2019-01-24T14:58:14.626Z,-4.60
2019-01-24T15:00:51.660Z,-4.60
2019-01-24T15:03:21.054Z,-4.60
2019-01-24T15:05:50.805Z,-4.70
2019-01-24T15:08:20.763Z,-4.70
2019-01-24T15:10:50.250Z,-4.70
2019-01-24T15:13:20.023Z,-4.60
2019-01-24T15:15:50.549Z,-4.70
2019-01-24T15:18:20.702Z,-4.70
2019-01-24T15:20:49.788Z,-4.70
2019-01-24T15:23:19.087Z,-4.70
2019-01-24T15:25:49.043Z,-4.80
2019-01-24T15:28:18.612Z,-4.80
2019-01-24T15:30:48.645Z,-4.90
2019-01-24T15:33:18.160Z,-4.90
2019-01-24T15:35:48.604Z,-4.90
2019-01-24T15:38:17.771Z,-4.90
2019-01-24T15:40:47.558Z,-4.80
2019-01-24T15:43:16.991Z,-4.90
2019-01-24T15:45:46.767Z,-4.90
2019-01-24T15:48:16.129Z,-4.90
2019-01-24T15:50:45.576Z,-4.90
2019-01-24T15:53:15.588Z,-4.90
2019-01-24T15:55:45.151Z,-4.90
2019-01-24T15:58:15.075Z,-5.00
2019-01-24T16:00:44.581Z,-4.90
2019-01-24T16:03:14.461Z,-4.90
2019-01-24T16:05:44.497Z,-4.90
2019-01-24T16:08:14.290Z,-4.90
2019-01-24T16:10:44.005Z,-4.90
2019-01-24T16:13:14.283Z,-4.80
2019-01-24T16:15:44.611Z,-4.80
2019-01-24T16:18:14.357Z,-4.90
2019-01-24T16:20:44.121Z,-4.90
2019-01-24T16:23:13.776Z,-5.00
2019-01-24T16:25:43.573Z,-5.00
2019-01-24T16:28:13.380Z,-5.00
2019-01-24T16:30:42.968Z,-5.00
2019-01-24T16:33:12.519Z,-5.00
2019-01-24T16:35:41.684Z,-5.00
2019-01-24T16:38:11.272Z,-5.10
2019-01-24T16:40:40.915Z,-5.00
2019-01-24T16:43:11.019Z,-5.00
2019-01-24T16:45:41.012Z,-5.00
2019-01-24T16:48:10.218Z,-5.00
2019-01-24T16:50:39.383Z,-5.00
2019-01-24T16:53:08.971Z,-5.00
2019-01-24T16:55:38.472Z,-5.00
2019-01-24T16:58:08.152Z,-5.00
2019-01-24T17:00:40.788Z,-5.00
2019-01-24T17:03:10.687Z,-5.00
2019-01-24T17:05:40.245Z,-5.00
2019-01-24T17:08:16.464Z,-5.10
2019-01-24T17:10:41.825Z,-5.00
2019-01-24T17:13:11.777Z,-5.10
2019-01-24T17:15:42.270Z,-5.20
2019-01-24T17:18:12.055Z,-5.10
2019-01-24T17:20:41.280Z,-5.00
2019-01-24T17:23:11.086Z,-5.10
2019-01-24T17:25:40.354Z,-5.00
2019-01-24T17:28:10.526Z,-5.00
2019-01-24T17:30:39.741Z,-5.10
2019-01-24T17:33:09.465Z,-5.10
2019-01-24T17:35:38.674Z,-5.10
2019-01-24T17:38:07.776Z,-5.00
2019-01-24T17:40:37.552Z,-5.00
2019-01-24T17:43:07.133Z,-5.10
2019-01-24T17:45:36.652Z,-5.00
2019-01-24T17:48:06.385Z,-5.00
2019-01-24T17:50:35.981Z,-5.00
2019-01-24T17:53:05.244Z,-5.10
2019-01-24T17:55:37.084Z,-5.10
2019-01-24T17:58:08.647Z,-5.10
2019-01-24T18:00:39.572Z,-5.20
2019-01-24T18:03:09.662Z,-5.20
2019-01-24T18:05:39.193Z,-5.20
2019-01-24T18:08:08.681Z,-5.20
2019-01-24T18:10:38.497Z,-5.20
2019-01-24T18:13:08.815Z,-5.10
2019-01-24T18:15:38.424Z,-5.10
2019-01-24T18:18:10.224Z,-5.10
2019-01-24T18:20:39.905Z,-4.90
2019-01-24T18:23:09.664Z,-5.00
2019-01-24T18:25:38.980Z,-5.10
2019-01-24T18:28:10.415Z,-5.10
2019-01-24T18:30:40.495Z,-5.10
2019-01-24T18:33:09.741Z,-5.10
2019-01-24T18:35:40.059Z,-5.10
2019-01-24T18:38:10.384Z,-5.10
2019-01-24T18:40:40.091Z,-5.10
2019-01-24T18:43:13.726Z,-5.20
2019-01-24T18:45:46.821Z,-5.20
2019-01-24T18:48:16.812Z,-5.20
2019-01-24T18:50:46.087Z,-5.20
2019-01-24T18:53:15.493Z,-5.10
2019-01-24T18:55:44.776Z,-5.20
2019-01-24T18:58:14.115Z,-5.10
2019-01-24T19:00:46.239Z,-5.10
2019-01-24T19:03:16.458Z,-5.10
2019-01-24T19:05:47.747Z,-5.10
2019-01-24T19:08:18.571Z,-5.10
2019-01-24T19:10:48.095Z,-5.10
2019-01-24T19:13:17.381Z,-5.20
2019-01-24T19:15:48.684Z,-5.20
2019-01-24T19:18:18.698Z,-5.20
2019-01-24T19:20:52.185Z,-5.20
2019-01-24T19:23:21.676Z,-5.20
2019-01-24T19:25:51.458Z,-5.20
2019-01-24T19:28:21.549Z,-5.10
2019-01-24T19:30:50.877Z,-5.10
2019-01-24T19:33:20.944Z,-5.20
2019-01-24T19:35:51.224Z,-5.20
2019-01-24T19:38:20.704Z,-5.00
2019-01-24T19:40:50.305Z,-5.00
2019-01-24T19:43:19.660Z,-5.10
2019-01-24T19:45:48.989Z,-5.00
2019-01-24T19:48:19.323Z,-5.00
2019-01-24T19:50:49.635Z,-5.00
2019-01-24T19:53:19.206Z,-5.10
2019-01-24T19:55:48.640Z,-5.10
2019-01-24T19:58:17.769Z,-5.10
2019-01-24T20:00:47.238Z,-5.10
2019-01-24T20:03:17.035Z,-5.10
2019-01-24T20:05:46.547Z,-5.10
2019-01-24T20:08:16.186Z,-5.10
2019-01-24T20:10:46.047Z,-5.10
2019-01-24T20:13:16.110Z,-5.10
2019-01-24T20:15:46.673Z,-5.10
2019-01-24T20:18:16.335Z,-5.10
2019-01-24T20:20:46.045Z,-5.10
2019-01-24T20:23:16.022Z,-5.10
2019-01-24T20:25:45.257Z,-5.10
2019-01-24T20:28:15.106Z,-5.10
2019-01-24T20:30:44.447Z,-5.10
2019-01-24T20:33:14.680Z,-5.10
2019-01-24T20:35:50.656Z,-5.10
2019-01-24T20:38:20.671Z,-5.10
2019-01-24T20:40:50.424Z,-5.10
2019-01-24T20:43:20.697Z,-5.10
2019-01-24T20:45:49.963Z,-5.10
2019-01-24T20:48:20.001Z,-5.10
2019-01-24T20:50:50.040Z,-5.10
2019-01-24T20:53:19.700Z,-5.10
2019-01-24T20:55:49.287Z,-5.10
2019-01-24T20:58:19.164Z,-5.10
2019-01-24T21:00:48.731Z,-5.20
2019-01-24T21:03:18.399Z,-5.20
2019-01-24T21:05:48.895Z,-5.30
2019-01-24T21:08:18.669Z,-5.20
2019-01-24T21:10:48.783Z,-5.20
2019-01-24T21:13:18.002Z,-5.20
2019-01-24T21:15:48.107Z,-5.20
2019-01-24T21:18:17.435Z,-5.30
2019-01-24T21:20:47.221Z,-5.30
2019-01-24T21:23:17.774Z,-5.40
2019-01-24T21:25:47.300Z,-5.30
2019-01-24T21:28:17.316Z,-5.30
2019-01-24T21:30:47.260Z,-5.20
2019-01-24T21:33:17.143Z,-5.30
2019-01-24T21:35:47.300Z,-5.40
2019-01-24T21:38:16.831Z,-5.30
2019-01-24T21:40:46.331Z,-5.30
2019-01-24T21:43:15.481Z,-5.30
2019-01-24T21:45:45.069Z,-5.30
2019-01-24T21:48:14.339Z,-5.30
2019-01-24T21:50:44.378Z,-5.40
2019-01-24T21:53:13.579Z,-5.30
2019-01-24T21:55:43.541Z,-5.30
2019-01-24T21:58:13.024Z,-5.30
2019-01-24T22:00:42.145Z,-5.30
2019-01-24T22:03:11.915Z,-5.40
2019-01-24T22:05:42.188Z,-5.40
2019-01-24T22:08:11.966Z,-5.40
2019-01-24T22:10:41.985Z,-5.40
2019-01-24T22:13:11.186Z,-5.50
2019-01-24T22:15:40.403Z,-5.50
2019-01-24T22:18:10.518Z,-5.50
2019-01-24T22:20:40.148Z,-5.50
2019-01-24T22:23:09.505Z,-5.60
2019-01-24T22:25:39.081Z,-5.50
2019-01-24T22:28:09.611Z,-5.50
2019-01-24T22:30:44.082Z,-5.60
2019-01-24T22:33:14.404Z,-5.60
2019-01-24T22:35:44.096Z,-5.60
2019-01-24T22:38:13.918Z,-5.60
2019-01-24T22:40:43.748Z,-5.60
2019-01-24T22:43:13.640Z,-5.50
2019-01-24T22:45:43.071Z,-5.50
2019-01-24T22:48:12.869Z,-5.50
2019-01-24T22:50:43.817Z,-5.50
2019-01-24T22:53:13.282Z,-5.50
2019-01-24T22:55:42.446Z,-5.50
2019-01-24T22:58:12.571Z,-5.50
2019-01-24T23:01:22.038Z,-5.50
2019-01-24T23:03:56.820Z,-5.50
2019-01-24T23:06:26.865Z,-5.50
2019-01-24T23:08:56.630Z,-5.40
2019-01-24T23:11:26.040Z,-5.50
2019-01-24T23:13:55.440Z,-5.40
2019-01-24T23:16:24.882Z,-5.40
2019-01-24T23:18:54.664Z,-5.40
2019-01-24T23:21:23.766Z,-5.40
2019-01-24T23:23:53.640Z,-5.40
2019-01-24T23:26:23.387Z,-5.40
2019-01-24T23:28:53.150Z,-5.40
2019-01-24T23:31:22.968Z,-5.40
2019-01-24T23:33:53.071Z,-5.40
2019-01-24T23:36:22.454Z,-5.40
2019-01-24T23:38:51.690Z,-5.40
2019-01-24T23:41:21.311Z,-5.40
2019-01-24T23:43:51.158Z,-5.40
2019-01-24T23:46:20.855Z,-5.40
2019-01-24T23:48:50.735Z,-5.40
2019-01-24T23:51:20.201Z,-5.30
2019-01-24T23:53:49.359Z,-5.30
2019-01-24T23:56:18.559Z,-5.40
2019-01-24T23:58:48.116Z,-5.40
